Terminal Aerodrome Forecast
Issued by NWS Tampa Bay Area, FL

Home | Current Version | Previous Version | Text Only | Print | Product List | Glossary On
Versions: 1 2 3 4 5 6 7 8 9 10 11 12 13 14 15 16
000
FTUS42 KTBW 211100
TAFFMY
TAF
KFMY 211140Z 2112/2212 VRB03KT P6SM VCSH SCT020 BKN130
     FM211500 VRB04KT P6SM VCTS SCT035CB BKN130
     FM211800 24006KT P6SM VCTS SCT040CB BKN130
     FM220100 VRB03KT P6SM SCT030 BKN100
     FM220600 VRB03KT P6SM SCT025 BKN100=

USA.gov is the U.S. government's official web portal to all federal, state and local government web resources and services.